createdAt,value
2024-02-01T00:00:38.338Z,32.03
2024-02-01T00:03:07.786Z,32.92
2024-02-01T00:05:34.765Z,45.13
2024-02-01T00:08:01.992Z,31.10
2024-02-01T00:10:29.070Z,30.58
2024-02-01T00:12:55.838Z,28.08
2024-02-01T00:15:24.266Z,27.25
2024-02-01T00:17:51.218Z,31.17
2024-02-01T00:20:19.483Z,33.50
2024-02-01T00:22:46.782Z,30.60
2024-02-01T00:25:13.674Z,33.08
2024-02-01T00:27:40.711Z,31.27
2024-02-01T00:30:08.343Z,31.85
2024-02-01T00:32:35.323Z,31.52
2024-02-01T00:35:02.628Z,34.00
2024-02-01T00:37:29.393Z,35.10
2024-02-01T00:39:56.725Z,33.25
2024-02-01T00:42:24.557Z,28.70
2024-02-01T00:44:51.688Z,32.47
2024-02-01T00:47:18.467Z,32.03
2024-02-01T00:49:47.692Z,32.45
2024-02-01T00:52:16.049Z,30.80
2024-02-01T00:54:43.232Z,31.27
2024-02-01T00:57:10.208Z,28.00
2024-02-01T00:59:38.313Z,30.80
2024-02-01T01:02:05.961Z,30.30
2024-02-01T01:04:32.842Z,27.83
2024-02-01T01:06:59.724Z,30.20
2024-02-01T01:09:27.051Z,28.13
2024-02-01T01:11:53.956Z,25.23
2024-02-01T01:14:21.131Z,27.30
2024-02-01T01:16:48.905Z,28.07
2024-02-01T01:19:16.001Z,27.00
2024-02-01T01:21:45.396Z,25.77
2024-02-01T01:24:12.681Z,27.93
2024-02-01T01:26:39.799Z,26.67
2024-02-01T01:29:06.924Z,28.70
2024-02-01T01:31:33.743Z,24.03
2024-02-01T01:34:03.681Z,26.20
2024-02-01T01:36:30.652Z,22.67
2024-02-01T01:38:57.505Z,29.87
2024-02-01T01:41:24.353Z,26.87
2024-02-01T01:43:51.537Z,27.87
2024-02-01T01:46:18.490Z,27.27
2024-02-01T01:48:45.908Z,30.43
2024-02-01T01:51:16.167Z,26.80
2024-02-01T01:53:46.299Z,29.43
2024-02-01T01:56:14.137Z,27.73
2024-02-01T01:58:43.273Z,32.10
2024-02-01T02:01:10.466Z,27.47
2024-02-01T02:03:41.540Z,28.13
2024-02-01T02:06:09.233Z,24.37
2024-02-01T02:08:36.212Z,31.63
2024-02-01T02:11:03.034Z,25.70
2024-02-01T02:13:29.816Z,27.73
2024-02-01T02:16:23.901Z,24.70
2024-02-01T02:18:51.152Z,27.50
2024-02-01T02:21:22.987Z,26.67
2024-02-01T02:23:51.168Z,27.63
2024-02-01T02:26:18.161Z,30.33
2024-02-01T02:28:45.063Z,29.10
2024-02-01T02:31:12.172Z,29.23
2024-02-01T02:33:39.224Z,33.00
2024-02-01T02:36:10.979Z,26.23
2024-02-01T02:38:43.201Z,25.23
2024-02-01T02:41:09.998Z,28.70
2024-02-01T02:43:37.364Z,30.77
2024-02-01T02:46:04.344Z,31.33
2024-02-01T02:48:33.695Z,25.60
2024-02-01T02:51:00.942Z,27.37
2024-02-01T02:53:27.948Z,32.87
2024-02-01T02:55:55.887Z,37.17
2024-02-01T02:58:24.360Z,34.77
2024-02-01T03:00:52.816Z,31.50
2024-02-01T03:03:21.808Z,37.57
2024-02-01T03:05:49.266Z,34.13
2024-02-01T03:08:16.140Z,33.97
2024-02-01T03:10:44.160Z,38.60
2024-02-01T03:13:11.048Z,33.20
2024-02-01T03:15:38.373Z,39.77
2024-02-01T03:18:06.697Z,36.40
2024-02-01T03:20:34.037Z,37.37
2024-02-01T03:23:01.218Z,33.30
2024-02-01T03:25:32.818Z,35.97
2024-02-01T03:28:05.951Z,33.03
2024-02-01T03:30:37.982Z,34.60
2024-02-01T03:33:06.614Z,31.23
2024-02-01T03:35:34.405Z,30.07
2024-02-01T03:38:02.901Z,32.50
2024-02-01T03:40:29.707Z,34.63
2024-02-01T03:42:56.584Z,30.67
2024-02-01T03:45:23.409Z,31.03
2024-02-01T03:47:50.527Z,29.13
2024-02-01T03:50:17.535Z,32.63
2024-02-01T03:52:49.108Z,33.17
2024-02-01T03:55:18.886Z,31.60
2024-02-01T03:57:47.367Z,31.70
2024-02-01T04:00:29.339Z,31.53
2024-02-01T04:02:58.374Z,31.93
2024-02-01T04:05:27.219Z,30.73
2024-02-01T04:07:55.165Z,30.97
2024-02-01T04:10:22.233Z,27.30
2024-02-01T04:12:51.001Z,27.77
2024-02-01T04:15:19.024Z,25.80
2024-02-01T04:17:46.280Z,27.07
2024-02-01T04:20:14.751Z,25.87
2024-02-01T04:22:44.556Z,26.07
2024-02-01T04:25:11.586Z,23.23
2024-02-01T04:27:38.559Z,27.10
2024-02-01T04:30:07.943Z,23.30
2024-02-01T04:32:35.820Z,22.70
2024-02-01T04:35:06.007Z,23.23
2024-02-01T04:37:36.079Z,24.80
2024-02-01T04:40:04.954Z,28.47
2024-02-01T04:42:32.096Z,28.47
2024-02-01T04:45:14.330Z,27.23
2024-02-01T04:47:41.240Z,25.97
2024-02-01T04:50:09.568Z,24.43
2024-02-01T04:52:36.941Z,25.87
2024-02-01T04:55:06.993Z,24.83
2024-02-01T04:57:34.318Z,30.87
2024-02-01T05:00:02.057Z,26.47
2024-02-01T05:02:28.926Z,23.00
2024-02-01T05:04:56.813Z,27.53
2024-02-01T05:07:23.772Z,28.00
2024-02-01T05:09:50.600Z,23.73
2024-02-01T05:12:21.118Z,28.50
2024-02-01T05:14:48.139Z,25.00
2024-02-01T05:17:15.497Z,24.97
2024-02-01T05:19:42.844Z,26.43
2024-02-01T05:22:11.967Z,23.50
2024-02-01T05:24:38.843Z,27.07
2024-02-01T05:27:09.922Z,26.47
2024-02-01T05:29:37.513Z,26.00
2024-02-01T05:32:07.475Z,29.47
2024-02-01T05:34:35.894Z,29.40
2024-02-01T05:37:02.885Z,23.80
2024-02-01T05:39:30.186Z,32.43
2024-02-01T05:42:01.716Z,26.47
2024-02-01T05:44:30.289Z,31.70
2024-02-01T05:46:58.487Z,33.40
2024-02-01T05:49:30.011Z,30.10
2024-02-01T05:52:01.776Z,30.67
2024-02-01T05:54:29.857Z,30.73
2024-02-01T05:56:56.868Z,30.93
2024-02-01T05:59:25.127Z,33.40
2024-02-01T06:01:51.983Z,32.03
2024-02-01T06:04:19.261Z,29.00
2024-02-01T06:06:48.111Z,30.60
2024-02-01T06:09:17.629Z,35.87
2024-02-01T06:11:52.458Z,28.63
2024-02-01T06:14:19.525Z,30.43
2024-02-01T06:16:46.616Z,32.27
2024-02-01T06:19:14.172Z,31.47
2024-02-01T06:21:42.906Z,28.37
2024-02-01T06:24:13.130Z,31.23
2024-02-01T06:26:40.355Z,35.63
2024-02-01T06:29:32.060Z,31.70
2024-02-01T06:31:59.070Z,29.80
2024-02-01T06:34:39.971Z,31.10
2024-02-01T06:37:10.310Z,30.97
2024-02-01T06:39:59.624Z,35.83
2024-02-01T06:42:33.363Z,30.23
2024-02-01T06:45:25.587Z,30.03
2024-02-01T06:48:02.268Z,36.77
2024-02-01T06:51:04.571Z,33.83
2024-02-01T06:53:36.073Z,42.03
2024-02-01T06:56:23.544Z,30.13
2024-02-01T06:58:57.436Z,34.57
2024-02-01T07:01:39.974Z,34.13
2024-02-01T07:04:21.983Z,37.72
2024-02-01T07:07:18.965Z,34.03
2024-02-01T07:10:00.196Z,36.97
2024-02-01T07:12:41.348Z,38.53
2024-02-01T07:15:26.729Z,38.13
2024-02-01T07:18:01.000Z,34.27
2024-02-01T07:20:49.130Z,36.00
2024-02-01T07:23:23.145Z,31.53
2024-02-01T07:26:03.433Z,39.23
2024-02-01T07:28:49.715Z,31.60
2024-02-01T07:31:36.571Z,33.28
2024-02-01T07:34:22.826Z,32.78
2024-02-01T07:37:08.282Z,33.38
2024-02-01T07:39:53.321Z,38.05
2024-02-01T07:42:38.923Z,35.47
2024-02-01T07:45:24.773Z,35.58
2024-02-01T07:48:10.154Z,30.55
2024-02-01T07:50:56.480Z,34.58
2024-02-01T07:53:41.789Z,29.08
2024-02-01T07:56:27.671Z,30.70
2024-02-01T07:58:55.922Z,33.95
2024-02-01T08:01:25.795Z,32.55
2024-02-01T08:04:14.241Z,34.33
2024-02-01T08:07:00.071Z,30.42
2024-02-01T08:09:28.543Z,31.15
2024-02-01T08:11:55.449Z,31.83
2024-02-01T08:14:24.128Z,30.17
2024-02-01T08:16:51.572Z,34.47
2024-02-01T08:19:34.012Z,29.50
2024-02-01T08:22:10.432Z,36.33
2024-02-01T08:24:37.475Z,33.85
2024-02-01T08:27:06.156Z,39.88
2024-02-01T08:29:38.039Z,34.15
2024-02-01T08:32:05.778Z,36.50
2024-02-01T08:34:40.817Z,45.17
2024-02-01T08:37:13.009Z,34.47
2024-02-01T08:39:47.413Z,31.37
2024-02-01T08:42:14.796Z,38.17
2024-02-01T08:44:44.693Z,33.35
2024-02-01T08:47:15.048Z,34.95
2024-02-01T08:49:44.038Z,36.40
2024-02-01T08:52:15.746Z,33.65
2024-02-01T08:54:47.499Z,32.97
2024-02-01T08:57:18.504Z,36.35
2024-02-01T08:59:47.243Z,37.85
2024-02-01T09:02:17.757Z,38.22
2024-02-01T09:04:44.877Z,33.20
2024-02-01T09:07:11.948Z,33.17
2024-02-01T09:09:40.327Z,40.67
2024-02-01T09:12:07.543Z,36.00
2024-02-01T09:14:37.495Z,39.78
2024-02-01T09:17:14.046Z,39.33
2024-02-01T09:19:42.855Z,37.47
2024-02-01T09:22:09.740Z,38.67
2024-02-01T09:24:36.571Z,35.67
2024-02-01T09:27:07.073Z,41.08
2024-02-01T09:29:36.608Z,33.50
2024-02-01T09:32:03.692Z,39.83
2024-02-01T09:34:31.498Z,37.50
2024-02-01T09:36:58.410Z,29.70
2024-02-01T09:39:25.338Z,39.45
2024-02-01T09:42:01.846Z,32.10
2024-02-01T09:47:20.485Z,31.83
2024-02-01T09:49:50.114Z,29.27
2024-02-01T09:52:17.446Z,36.22
2024-02-01T09:54:47.801Z,23.88
2024-02-01T09:57:18.043Z,28.70
2024-02-01T09:59:45.353Z,30.77
2024-02-01T10:02:13.486Z,37.72
2024-02-01T10:04:41.857Z,39.80
2024-02-01T10:07:11.714Z,37.35
2024-02-01T10:09:40.304Z,38.67
2024-02-01T10:12:07.829Z,36.45
2024-02-01T10:14:39.795Z,34.65
2024-02-01T10:17:07.029Z,34.88
2024-02-01T10:19:36.363Z,36.55
2024-02-01T10:22:12.357Z,38.17
2024-02-01T10:24:46.815Z,41.10
2024-02-01T10:27:18.667Z,41.22
2024-02-01T10:29:45.772Z,34.63
2024-02-01T10:32:15.444Z,34.55
2024-02-01T10:34:54.604Z,37.72
2024-02-01T10:37:25.385Z,37.33
2024-02-01T10:40:07.984Z,35.22
2024-02-01T10:42:36.659Z,28.83
2024-02-01T10:45:10.984Z,33.30
2024-02-01T10:47:44.648Z,31.23
2024-02-01T10:50:12.017Z,26.83
2024-02-01T10:52:39.617Z,28.40
2024-02-01T10:55:11.156Z,25.23
2024-02-01T10:57:43.100Z,26.50
2024-02-01T11:00:21.958Z,25.23
2024-02-01T11:02:52.974Z,22.17
2024-02-01T11:05:19.929Z,26.33
2024-02-01T11:07:50.009Z,27.73
2024-02-01T11:10:16.965Z,21.20
2024-02-01T11:12:55.631Z,25.13
2024-02-01T11:15:26.643Z,24.85
2024-02-01T11:18:01.048Z,29.13
2024-02-01T11:20:32.512Z,22.85
2024-02-01T11:22:59.586Z,26.35
2024-02-01T11:25:29.957Z,24.60
2024-02-01T11:27:58.792Z,28.05
2024-02-01T11:30:29.673Z,25.20
2024-02-01T11:32:57.238Z,31.30
2024-02-01T11:35:24.589Z,24.67
2024-02-01T11:38:07.920Z,25.10
2024-02-01T11:43:01.889Z,18.50
2024-02-01T11:45:29.810Z,23.60
2024-02-01T11:47:58.548Z,24.77
2024-02-01T11:50:25.695Z,33.75
2024-02-01T11:53:00.112Z,20.83
2024-02-01T11:55:30.877Z,25.48
2024-02-01T11:58:00.492Z,29.85
2024-02-01T12:00:39.444Z,22.00
2024-02-01T12:03:16.069Z,21.95
2024-02-01T12:05:45.764Z,23.13
2024-02-01T12:08:12.673Z,22.73
2024-02-01T12:10:40.312Z,17.20
2024-02-01T12:13:07.201Z,28.08
2024-02-01T12:15:37.922Z,22.63
2024-02-01T12:18:10.133Z,22.23
2024-02-01T12:20:37.960Z,23.55
2024-02-01T12:23:05.366Z,25.38
2024-02-01T12:25:34.442Z,22.10
2024-02-01T12:28:01.714Z,23.50
2024-02-01T12:30:30.297Z,22.88
2024-02-01T12:32:57.409Z,25.90
2024-02-01T12:35:33.006Z,24.52
2024-02-01T12:38:03.077Z,24.13
2024-02-01T12:40:30.572Z,25.30
2024-02-01T12:43:02.674Z,21.33
2024-02-01T12:45:29.488Z,28.73
2024-02-01T12:47:56.429Z,21.42
2024-02-01T12:50:24.039Z,22.80
2024-02-01T12:52:51.896Z,28.80
2024-02-01T12:55:19.099Z,30.40
2024-02-01T12:57:47.854Z,24.33
2024-02-01T13:00:15.401Z,21.58
2024-02-01T13:02:43.281Z,25.25
2024-02-01T13:05:13.560Z,28.73
2024-02-01T13:07:40.691Z,27.48
2024-02-01T13:10:16.553Z,26.60
2024-02-01T13:12:56.376Z,31.65
2024-02-01T13:15:25.099Z,31.45
2024-02-01T13:17:55.384Z,32.83
2024-02-01T13:20:23.044Z,31.10
2024-02-01T13:22:51.223Z,32.03
2024-02-01T13:25:21.921Z,26.38
2024-02-01T13:27:51.109Z,27.85
2024-02-01T13:30:19.589Z,25.95
2024-02-01T13:32:47.347Z,36.50
2024-02-01T13:35:14.837Z,26.10
2024-02-01T13:37:41.945Z,24.58
2024-02-01T13:40:16.128Z,27.80
2024-02-01T13:42:43.737Z,29.63
2024-02-01T13:45:10.962Z,29.25
2024-02-01T13:47:38.135Z,32.30
2024-02-01T13:50:06.942Z,32.13
2024-02-01T13:52:35.082Z,28.15
2024-02-01T13:55:01.886Z,32.08
2024-02-01T13:57:29.005Z,29.08
2024-02-01T13:59:56.182Z,30.00
2024-02-01T14:02:23.483Z,29.63
2024-02-01T14:04:50.377Z,34.20
2024-02-01T14:07:17.243Z,30.05
2024-02-01T14:09:44.147Z,36.50
2024-02-01T14:12:11.145Z,35.72
2024-02-01T14:14:38.188Z,32.10
2024-02-01T14:17:05.098Z,30.13
2024-02-01T14:19:32.313Z,34.38
2024-02-01T14:21:59.251Z,36.17
2024-02-01T14:24:26.384Z,34.28
2024-02-01T14:26:53.373Z,39.35
2024-02-01T14:29:20.337Z,31.95
2024-02-01T14:31:47.221Z,31.13
2024-02-01T14:34:15.118Z,38.67
2024-02-01T14:36:43.115Z,31.63
2024-02-01T14:39:22.884Z,37.45
2024-02-01T14:41:51.464Z,35.75
2024-02-01T14:44:19.191Z,33.85
2024-02-01T14:46:46.641Z,31.95
2024-02-01T14:49:14.423Z,38.63
2024-02-01T14:51:41.557Z,36.67
2024-02-01T14:54:08.458Z,32.90
2024-02-01T14:56:36.025Z,39.95
2024-02-01T14:59:03.856Z,43.47
2024-02-01T15:01:31.783Z,39.72
2024-02-01T15:03:58.949Z,40.88
2024-02-01T15:06:26.416Z,39.78
2024-02-01T15:08:59.863Z,38.92
2024-02-01T15:11:28.565Z,41.40
2024-02-01T15:13:56.414Z,35.08
2024-02-01T15:16:24.098Z,36.38
2024-02-01T15:18:51.843Z,40.03
2024-02-01T15:21:19.102Z,34.17
2024-02-01T15:23:46.943Z,44.67
2024-02-01T15:26:14.543Z,44.85
2024-02-01T15:28:42.008Z,47.35
2024-02-01T15:31:12.410Z,33.53
2024-02-01T15:33:40.311Z,40.95
2024-02-01T15:36:08.074Z,33.70
2024-02-01T15:38:36.421Z,33.05
2024-02-01T15:41:07.836Z,43.78
2024-02-01T15:43:34.678Z,45.65
2024-02-01T15:46:01.477Z,40.33
2024-02-01T15:48:28.445Z,36.13
2024-02-01T15:50:55.547Z,30.70
2024-02-01T15:53:22.621Z,28.55
2024-02-01T15:55:49.467Z,31.17
2024-02-01T15:58:16.430Z,28.27
2024-02-01T16:00:44.776Z,34.38
2024-02-01T16:03:14.312Z,33.90
2024-02-01T16:05:59.043Z,30.00
2024-02-01T16:08:26.940Z,31.27
2024-02-01T16:11:01.725Z,35.65
2024-02-01T16:13:47.898Z,37.25
2024-02-01T16:16:31.017Z,34.10
2024-02-01T16:18:59.510Z,39.78
2024-02-01T16:21:29.321Z,35.05
2024-02-01T16:23:56.999Z,30.38
2024-02-01T16:26:51.413Z,29.95
2024-02-01T16:29:18.240Z,34.30
2024-02-01T16:31:47.621Z,35.40
2024-02-01T16:34:15.263Z,35.83
2024-02-01T16:36:59.986Z,42.95
2024-02-01T16:39:46.855Z,37.22
2024-02-01T16:42:22.847Z,40.92
2024-02-01T16:44:56.305Z,38.17
2024-02-01T16:47:53.417Z,33.28
2024-02-01T16:50:32.772Z,32.15
2024-02-01T16:53:04.077Z,31.33
2024-02-01T16:55:54.615Z,34.38
2024-02-01T16:58:27.654Z,29.38
2024-02-01T17:00:57.332Z,31.38
2024-02-01T17:03:28.643Z,39.42
2024-02-01T17:05:57.850Z,27.55
2024-02-01T17:08:45.312Z,28.92
2024-02-01T17:11:16.498Z,23.60
2024-02-01T17:13:43.450Z,26.60
2024-02-01T17:16:41.683Z,28.77
2024-02-01T17:19:12.473Z,26.55
2024-02-01T17:21:45.125Z,30.30
2024-02-01T17:24:19.987Z,29.63
2024-02-01T17:26:48.513Z,25.83
2024-02-01T17:29:19.177Z,28.77
2024-02-01T17:31:47.334Z,22.92
2024-02-01T17:34:25.299Z,28.42
2024-02-01T17:36:55.200Z,30.95
2024-02-01T17:39:48.160Z,30.95
2024-02-01T17:42:32.720Z,32.90
2024-02-01T17:45:27.768Z,29.73
2024-02-01T17:48:10.430Z,33.47
2024-02-01T17:50:39.902Z,32.22
2024-02-01T17:53:11.714Z,39.70
2024-02-01T17:55:48.778Z,42.00
2024-02-01T17:58:40.687Z,33.92
2024-02-01T18:01:16.943Z,45.00
2024-02-01T18:03:45.916Z,46.90
2024-02-01T18:06:22.274Z,43.08
2024-02-01T18:08:49.895Z,35.88
2024-02-01T18:11:18.227Z,48.33
2024-02-01T18:13:46.498Z,41.00
2024-02-01T18:16:15.894Z,41.92
2024-02-01T18:18:45.582Z,40.33
2024-02-01T18:21:20.343Z,51.25
2024-02-01T18:23:48.651Z,49.65
2024-02-01T18:26:18.282Z,38.70
2024-02-01T18:28:46.070Z,40.72
2024-02-01T18:34:21.448Z,41.33
2024-02-01T18:36:50.390Z,41.13
2024-02-01T18:39:27.981Z,38.92
2024-02-01T18:41:58.850Z,42.17
2024-02-01T18:44:26.967Z,42.03
2024-02-01T18:47:00.640Z,40.42
2024-02-01T18:49:33.410Z,38.83
2024-02-01T18:52:05.436Z,38.22
2024-02-01T18:54:36.135Z,35.53
2024-02-01T18:57:06.928Z,37.50
2024-02-01T18:59:53.511Z,36.60
2024-02-01T19:02:51.724Z,40.50
2024-02-01T19:05:44.312Z,51.47
2024-02-01T19:08:14.500Z,43.72
2024-02-01T19:10:43.717Z,34.15
2024-02-01T19:13:57.948Z,32.65
2024-02-01T19:16:26.854Z,36.78
2024-02-01T19:19:02.956Z,38.67
2024-02-01T19:21:33.855Z,41.10
2024-02-01T19:24:06.806Z,36.08
2024-02-01T19:26:34.134Z,34.13
2024-02-01T19:29:07.685Z,32.33
2024-02-01T19:31:40.207Z,30.65
2024-02-01T19:34:10.529Z,38.65
2024-02-01T19:36:38.317Z,34.17
2024-02-01T19:39:10.747Z,33.60
2024-02-01T19:41:43.717Z,35.17
2024-02-01T19:44:12.910Z,34.67
2024-02-01T19:46:40.693Z,33.90
2024-02-01T19:49:09.273Z,33.05
2024-02-01T19:54:30.200Z,33.08
2024-02-01T19:57:00.790Z,29.70
2024-02-01T19:59:28.777Z,30.73
2024-02-01T20:01:55.683Z,36.97
2024-02-01T20:04:22.588Z,40.47
2024-02-01T20:06:50.974Z,32.42
2024-02-01T20:09:18.112Z,33.92
2024-02-01T20:11:45.481Z,40.65
2024-02-01T20:14:12.803Z,37.63
2024-02-01T20:16:42.085Z,41.90
2024-02-01T20:19:09.801Z,36.28
2024-02-01T20:21:38.150Z,47.55
2024-02-01T20:24:09.222Z,45.72
2024-02-01T20:26:36.265Z,37.10
2024-02-01T20:29:04.513Z,39.53
2024-02-01T20:31:34.221Z,42.10
2024-02-01T20:34:10.232Z,39.42
2024-02-01T20:36:54.322Z,43.33
2024-02-01T20:39:41.356Z,40.78
2024-02-01T20:42:24.155Z,35.65
2024-02-01T20:44:56.512Z,45.95
2024-02-01T20:47:35.135Z,40.65
2024-02-01T20:50:07.566Z,34.50
2024-02-01T20:52:35.807Z,40.75
2024-02-01T20:55:19.373Z,41.20
2024-02-01T20:57:54.834Z,37.38
2024-02-01T21:00:26.875Z,42.13
2024-02-01T21:02:54.867Z,34.92
2024-02-01T21:05:47.634Z,44.70
2024-02-01T21:08:29.369Z,38.38
2024-02-01T21:10:57.074Z,32.03
2024-02-01T21:13:27.826Z,34.60
2024-02-01T21:15:55.747Z,35.72
2024-02-01T21:18:24.875Z,33.60
2024-02-01T21:20:53.226Z,32.13
2024-02-01T21:23:46.097Z,33.63
2024-02-01T21:26:27.094Z,34.97
2024-02-01T21:28:55.643Z,36.60
2024-02-01T21:31:23.885Z,33.03
2024-02-01T21:33:55.421Z,37.05
2024-02-01T21:36:23.436Z,37.22
2024-02-01T21:38:51.099Z,37.20
2024-02-01T21:41:19.675Z,35.55
2024-02-01T21:43:46.749Z,35.88
2024-02-01T21:46:21.921Z,35.25
2024-02-01T21:48:50.018Z,40.50
2024-02-01T21:51:16.986Z,36.92
2024-02-01T21:53:44.257Z,34.83
2024-02-01T21:56:12.778Z,38.47
2024-02-01T21:58:39.741Z,35.58
2024-02-01T22:01:06.720Z,41.75
2024-02-01T22:03:33.784Z,47.88
2024-02-01T22:06:00.792Z,44.72
2024-02-01T22:08:27.692Z,50.80
2024-02-01T22:10:54.535Z,41.22
2024-02-01T22:13:21.445Z,36.80
2024-02-01T22:15:48.328Z,32.45
2024-02-01T22:18:15.366Z,46.10
2024-02-01T22:20:42.320Z,39.67
2024-02-01T22:23:09.184Z,40.50
2024-02-01T22:25:36.050Z,34.95
2024-02-01T22:28:02.950Z,33.15
2024-02-01T22:30:29.863Z,37.75
2024-02-01T22:35:24.761Z,36.42
2024-02-01T22:37:51.704Z,38.65
2024-02-01T22:40:18.622Z,37.45
2024-02-01T22:42:45.514Z,38.53
2024-02-01T22:45:12.983Z,43.28
2024-02-01T22:47:40.086Z,40.72
2024-02-01T22:50:07.637Z,41.88
2024-02-01T22:52:35.302Z,42.45
2024-02-01T22:55:02.289Z,37.63
2024-02-01T22:57:30.263Z,37.00
2024-02-01T22:59:57.163Z,47.38
2024-02-01T23:02:24.055Z,39.78
2024-02-01T23:04:50.934Z,39.33
2024-02-01T23:07:17.876Z,40.25
2024-02-01T23:09:44.785Z,43.13
2024-02-01T23:12:11.807Z,37.97
2024-02-01T23:14:38.701Z,41.60
2024-02-01T23:17:05.814Z,41.92
2024-02-01T23:19:32.698Z,36.65
2024-02-01T23:21:59.970Z,33.95
2024-02-01T23:24:27.257Z,36.78
2024-02-01T23:26:54.366Z,35.85
2024-02-01T23:29:21.337Z,34.95
2024-02-01T23:31:48.221Z,40.50
2024-02-01T23:34:15.532Z,40.97
2024-02-01T23:36:42.464Z,36.53
2024-02-01T23:39:09.509Z,39.00
2024-02-01T23:41:36.372Z,34.05
2024-02-01T23:44:04.073Z,30.98
2024-02-01T23:46:30.936Z,34.65
2024-02-01T23:48:58.027Z,34.08
2024-02-01T23:51:25.038Z,34.25
2024-02-01T23:53:51.952Z,31.65
2024-02-01T23:56:19.204Z,34.72
2024-02-01T23:58:46.053Z,31.45
